Terminal Aerodrome Forecast
Issued by NWS

Home | Current Version | Previous Version | Text Only | Print | Product List | Glossary On
Versions: 1 2 3 4 5 6 7 8 9 10 11 12 13 14 15
000
FTUS45 KABQ 271100 RRA
TAFSAF
TAF
KSAF 271141Z 2712/2812 36011KT P6SM FEW008 BKN040
     FM271700 03014KT P6SM VCSH BKN040
     FM272100 06015G25KT P6SM VCSH BKN045
     FM280200 12009KT P6SM BKN050
     FM280900 01004KT P6SM BKN025=

USA.gov is the U.S. government's official web portal to all federal, state and local government web resources and services.